Flight Briefing for CPX224

Departure Arrival
Los Angeles International Airport (KLAX)
Click to view FAA NOTAMS
Ted Stevens Anchorage International Airport (PANC)
Click to view FAA NOTAMS
Departure Time Arrival Time
1730 UTC 2210 UTC
Aircraft Distance
B767-300BDSF 2089nm
Departure METAR Arrival METAR
KLAX 180553Z 31012KT 10SM FEW041 BKN110 11/02 A3001 RMK AO2 SLP161 T01060022 10133 20106 53019 PANC 180616Z 17009G15KT 10SM FEW012 SCT022 OVC030 03/M01 A2984 RMK AO2 VIRGA ALQDS T00281011
Suggested Route
SUMMR1 SCTRR PYE J143 ENI FOT BOXER B453 MDO WITTI4


View recent IFR Routes data
Notes



Charts and Procedures

Charts for KLAX
No chart available
Charts for PANC
No chart available

Ventusky Weather